MSC Ludovica — HPAF — position and weather

sailwx.info

Track history (hours):
 
Tides and Currents Weather Stations Pressure Air Temp Water Temp Dewpoint Dewpoint Depression Visibility Wind Speed Wind Dir Waves Ship Positions

MSC Ludovica

Last reported at 2017-Mar-17 15:33 UTC. Time now 2017-Mar-24 14:08 UTC.
Position N 29°21' W 094°46'.

Length 301 m; draft 11.8 m.

Type: Ship. MMSI: 351248000.

Date/timePositionNaut miles runAvg speedWind from/ knotsBaromVisibWave heightAir tempDewpointWater temp
2017-Mar-17 15:33N 29°21' W 094°46'1110.3
2017-Mar-17 14:32N 29°30' W 094°52'9 9.3
2017-Mar-17 13:33N 29°37' W 094°58'4 3.7
2017-Mar-17 12:28N 29°41' W 094°60'0 0.0
2017-Mar-17 11:25N 29°41' W 094°60'0 0.0
2017-Mar-17 10:31N 29°41' W 094°60'0 0.0
2017-Mar-17 09:25N 29°41' W 094°60'0 0.0
2017-Mar-17 08:31N 29°41' W 094°60'0 0.0
2017-Mar-17 07:31N 29°41' W 094°60'0 0.0
2017-Mar-17 06:28N 29°41' W 094°60'0 0.0
2017-Mar-17 05:28N 29°41' W 094°60'0 0.0
2017-Mar-17 04:28N 29°41' W 094°60'0 0.0
2017-Mar-17 03:31N 29°41' W 094°60'0 0.0
2017-Mar-17 02:31N 29°41' W 094°60'0 0.0
2017-Mar-17 01:31N 29°41' W 094°60'0 0.0
2017-Mar-17 00:31N 29°41' W 094°60'0 0.0
2017-Mar-16 23:31N 29°41' W 094°60'0 0.0
2017-Mar-16 22:31N 29°41' W 094°60'0 0.0
2017-Mar-16 21:28N 29°41' W 094°60'0 0.0
2017-Mar-16 20:28N 29°41' W 094°60'0 0.0
2017-Mar-16 19:31N 29°41' W 094°60'0 0.0
2017-Mar-16 18:25N 29°41' W 094°60'0 0.0
2017-Mar-16 17:31N 29°41' W 094°60'0 0.0
2017-Mar-16 16:31N 29°41' W 094°60'0 0.0
2017-Mar-16 15:31N 29°41' W 094°60'0 0.0
2017-Mar-16 14:28N 29°41' W 094°60'0 0.0
2017-Mar-16 13:31N 29°41' W 094°60'0 0.0
2017-Mar-16 12:28N 29°41' W 094°60'0 0.0
2017-Mar-16 11:28N 29°41' W 094°60'0 0.0
2017-Mar-16 10:28N 29°41' W 094°60'0 0.0
2017-Mar-16 09:28N 29°41' W 094°60'0 0.0
2017-Mar-16 08:28N 29°41' W 094°60'0 0.0
2017-Mar-16 07:31N 29°41' W 094°60'0 0.0
2017-Mar-16 06:28N 29°41' W 094°60'0 0.0
2017-Mar-16 05:31N 29°41' W 094°60'0 0.0
2017-Mar-16 04:31N 29°41' W 094°60'0 0.0
2017-Mar-16 03:28N 29°41' W 094°60'0 0.0
2017-Mar-16 02:22N 29°41' W 094°60'0 0.0
2017-Mar-16 01:28N 29°41' W 094°60'0 0.0
2017-Mar-16 00:28N 29°41' W 094°60'0 0.0
2017-Mar-15 23:04N 29°41' W 094°60'0 0.0
2017-Mar-15 22:31N 29°41' W 094°60'0 0.4
2017-Mar-15 21:33N 29°41' W 094°59'9 8.6
2017-Mar-15 20:33N 29°33' W 094°55'1111.4
2017-Mar-15 19:33N 29°23' W 094°49'  
2017-Mar-12 21:30N 19°58' W 096°14'1314.3
2017-Mar-12 20:33N 19°46' W 096°09'1414.3
2017-Mar-12 19:33N 19°32' W 096°03'1918.6
2017-Mar-12 18:33N 19°14' W 095°58'9 9.4
2017-Mar-12 17:34N 19°12' W 096°08'0 0.3
2017-Mar-12 16:31N 19°13' W 096°08'0 0.0
2017-Mar-12 15:28N 19°13' W 096°08'0 0.0
2017-Mar-12 14:28N 19°13' W 096°08'0 0.0
2017-Mar-12 13:28N 19°13' W 096°08'0 0.0
2017-Mar-12 12:31N 19°13' W 096°08'0 0.0
2017-Mar-12 11:31N 19°13' W 096°08'0 0.0
2017-Mar-12 10:28N 19°13' W 096°08'0 0.0
2017-Mar-12 09:33N 19°13' W 096°08'0 0.0
2017-Mar-12 08:33N 19°13' W 096°08'0 0.0
2017-Mar-12 07:33N 19°13' W 096°08'0 0.0
2017-Mar-12 06:33N 19°13' W 096°08'0 0.0
2017-Mar-12 05:33N 19°13' W 096°08'0 0.0
2017-Mar-12 04:33N 19°13' W 096°08'0 0.0
2017-Mar-12 03:33N 19°13' W 096°08'0 0.0
2017-Mar-12 02:33N 19°13' W 096°08'2 1.7
2017-Mar-12 01:33N 19°12' W 096°06'3 2.5
2017-Mar-12 00:33N 19°11' W 096°04'7 7.2
2017-Mar-11 23:33N 19°14' W 095°57'9 9.2
2017-Mar-11 22:33N 19°15' W 095°47'9 8.7
2017-Mar-11 21:33N 19°23' W 095°46'1 0.6
2017-Mar-11 20:33N 19°23' W 095°45'1 0.6
2017-Mar-11 19:33N 19°22' W 095°45'0 0.5
2017-Mar-11 18:33N 19°22' W 095°44'0 0.5
2017-Mar-11 17:33N 19°22' W 095°44'1 0.6
2017-Mar-11 16:33N 19°21' W 095°44'1 0.7
2017-Mar-11 15:32N 19°21' W 095°43'1 0.9
2017-Mar-11 14:33N 19°21' W 095°42'1 1.0
2017-Mar-11 13:28N 19°21' W 095°41'1 1.1
2017-Mar-11 12:34N 19°21' W 095°40'1 1.2
2017-Mar-11 11:33N 19°21' W 095°39'1 1.3
2017-Mar-11 10:33N 19°21' W 095°37'2 1.4
2017-Mar-11 09:17N 19°21' W 095°35'1 1.1
2017-Mar-11 08:33N 19°21' W 095°35'1 0.6
2017-Mar-11 07:29N 19°22' W 095°34'1 1.4
2017-Mar-11 06:28N 19°21' W 095°35'1011.2
2017-Mar-11 05:34N 19°15' W 095°44'1 0.8
2017-Mar-11 04:34N 19°15' W 095°43'1 0.9
2017-Mar-11 03:34N 19°15' W 095°42'1 1.0
2017-Mar-11 02:33N 19°16' W 095°42'3 3.1
2017-Mar-11 01:34N 19°13' W 095°43'3 2.8
2017-Mar-11 00:34N 19°11' W 095°43'1 1.0
2017-Mar-10 23:33N 19°11' W 095°43'1 0.9
2017-Mar-10 22:34N 19°12' W 095°42'1 0.8
2017-Mar-10 21:34N 19°12' W 095°41'1 0.7
2017-Mar-10 20:33N 19°13' W 095°41'1 0.7
2017-Mar-10 19:34N 19°13' W 095°41'1 0.7
2017-Mar-10 18:33N 19°14' W 095°40'1 0.7
2017-Mar-10 17:33N 19°15' W 095°41'1 0.6
2017-Mar-10 16:34N 19°15' W 095°41'1 0.8
2017-Mar-10 15:34N 19°16' W 095°41'1 0.6
2017-Mar-10 14:33N 19°16' W 095°41'0 0.4
2017-Mar-10 13:33N 19°17' W 095°41'0 0.4
2017-Mar-10 12:33N 19°16' W 095°41'2 2.4
2017-Mar-10 11:34N 19°16' W 095°39'32 9.2
2017-Mar-10 08:04N 19°35' W 095°11'612.5
2017-Mar-10 07:34N 19°39' W 095°06'1812.4
2017-Mar-10 06:05N 19°50' W 094°50'1212.4
2017-Mar-10 05:05N 19°57' W 094°39'  
Track history (hours):
 
Tides and Currents Weather Stations Pressure Air Temp Water Temp Dewpoint Dewpoint Depression Visibility Wind Speed Wind Dir Waves Ship Positions

MSC Ludovica

Last reported at 2017-Mar-17 15:33 UTC. Time now 2017-Mar-24 14:08 UTC.
Position N 29°21' W 094°46'.

Length 301 m; draft 11.8 m.

Type: Ship. MMSI: 351248000.

Date/timePositionNaut miles runAvg speedWind from/ knotsBaromVisibWave heightAir tempDewpointWater temp
2017-Mar-17 15:33N 29°21' W 094°46'1110.3
2017-Mar-17 14:32N 29°30' W 094°52'9 9.3
2017-Mar-17 13:33N 29°37' W 094°58'4 3.7
2017-Mar-17 12:28N 29°41' W 094°60'0 0.0
2017-Mar-17 11:25N 29°41' W 094°60'0 0.0
2017-Mar-17 10:31N 29°41' W 094°60'0 0.0
2017-Mar-17 09:25N 29°41' W 094°60'0 0.0
2017-Mar-17 08:31N 29°41' W 094°60'0 0.0
2017-Mar-17 07:31N 29°41' W 094°60'0 0.0
2017-Mar-17 06:28N 29°41' W 094°60'0 0.0
2017-Mar-17 05:28N 29°41' W 094°60'0 0.0
2017-Mar-17 04:28N 29°41' W 094°60'0 0.0
2017-Mar-17 03:31N 29°41' W 094°60'0 0.0
2017-Mar-17 02:31N 29°41' W 094°60'0 0.0
2017-Mar-17 01:31N 29°41' W 094°60'0 0.0
2017-Mar-17 00:31N 29°41' W 094°60'0 0.0
2017-Mar-16 23:31N 29°41' W 094°60'0 0.0
2017-Mar-16 22:31N 29°41' W 094°60'0 0.0
2017-Mar-16 21:28N 29°41' W 094°60'0 0.0
2017-Mar-16 20:28N 29°41' W 094°60'0 0.0
2017-Mar-16 19:31N 29°41' W 094°60'0 0.0
2017-Mar-16 18:25N 29°41' W 094°60'0 0.0
2017-Mar-16 17:31N 29°41' W 094°60'0 0.0
2017-Mar-16 16:31N 29°41' W 094°60'0 0.0
2017-Mar-16 15:31N 29°41' W 094°60'0 0.0
2017-Mar-16 14:28N 29°41' W 094°60'0 0.0
2017-Mar-16 13:31N 29°41' W 094°60'0 0.0
2017-Mar-16 12:28N 29°41' W 094°60'0 0.0
2017-Mar-16 11:28N 29°41' W 094°60'0 0.0
2017-Mar-16 10:28N 29°41' W 094°60'0 0.0
2017-Mar-16 09:28N 29°41' W 094°60'0 0.0
2017-Mar-16 08:28N 29°41' W 094°60'0 0.0
2017-Mar-16 07:31N 29°41' W 094°60'0 0.0
2017-Mar-16 06:28N 29°41' W 094°60'0 0.0
2017-Mar-16 05:31N 29°41' W 094°60'0 0.0
2017-Mar-16 04:31N 29°41' W 094°60'0 0.0
2017-Mar-16 03:28N 29°41' W 094°60'0 0.0
2017-Mar-16 02:22N 29°41' W 094°60'0 0.0
2017-Mar-16 01:28N 29°41' W 094°60'0 0.0
2017-Mar-16 00:28N 29°41' W 094°60'0 0.0
2017-Mar-15 23:04N 29°41' W 094°60'0 0.0
2017-Mar-15 22:31N 29°41' W 094°60'0 0.4
2017-Mar-15 21:33N 29°41' W 094°59'9 8.6
2017-Mar-15 20:33N 29°33' W 094°55'1111.4
2017-Mar-15 19:33N 29°23' W 094°49'  
2017-Mar-12 21:30N 19°58' W 096°14'1314.3
2017-Mar-12 20:33N 19°46' W 096°09'1414.3
2017-Mar-12 19:33N 19°32' W 096°03'1918.6
2017-Mar-12 18:33N 19°14' W 095°58'9 9.4
2017-Mar-12 17:34N 19°12' W 096°08'0 0.3
2017-Mar-12 16:31N 19°13' W 096°08'0 0.0
2017-Mar-12 15:28N 19°13' W 096°08'0 0.0
2017-Mar-12 14:28N 19°13' W 096°08'0 0.0
2017-Mar-12 13:28N 19°13' W 096°08'0 0.0
2017-Mar-12 12:31N 19°13' W 096°08'0 0.0
2017-Mar-12 11:31N 19°13' W 096°08'0 0.0
2017-Mar-12 10:28N 19°13' W 096°08'0 0.0
2017-Mar-12 09:33N 19°13' W 096°08'0 0.0
2017-Mar-12 08:33N 19°13' W 096°08'0 0.0
2017-Mar-12 07:33N 19°13' W 096°08'0 0.0
2017-Mar-12 06:33N 19°13' W 096°08'0 0.0
2017-Mar-12 05:33N 19°13' W 096°08'0 0.0
2017-Mar-12 04:33N 19°13' W 096°08'0 0.0
2017-Mar-12 03:33N 19°13' W 096°08'0 0.0
2017-Mar-12 02:33N 19°13' W 096°08'2 1.7
2017-Mar-12 01:33N 19°12' W 096°06'3 2.5
2017-Mar-12 00:33N 19°11' W 096°04'7 7.2
2017-Mar-11 23:33N 19°14' W 095°57'9 9.2
2017-Mar-11 22:33N 19°15' W 095°47'9 8.7
2017-Mar-11 21:33N 19°23' W 095°46'1 0.6
2017-Mar-11 20:33N 19°23' W 095°45'1 0.6
2017-Mar-11 19:33N 19°22' W 095°45'0 0.5
2017-Mar-11 18:33N 19°22' W 095°44'0 0.5
2017-Mar-11 17:33N 19°22' W 095°44'1 0.6
2017-Mar-11 16:33N 19°21' W 095°44'1 0.7
2017-Mar-11 15:32N 19°21' W 095°43'1 0.9
2017-Mar-11 14:33N 19°21' W 095°42'1 1.0
2017-Mar-11 13:28N 19°21' W 095°41'1 1.1
2017-Mar-11 12:34N 19°21' W 095°40'1 1.2
2017-Mar-11 11:33N 19°21' W 095°39'1 1.3
2017-Mar-11 10:33N 19°21' W 095°37'2 1.4
2017-Mar-11 09:17N 19°21' W 095°35'1 1.1
2017-Mar-11 08:33N 19°21' W 095°35'1 0.6
2017-Mar-11 07:29N 19°22' W 095°34'1 1.4
2017-Mar-11 06:28N 19°21' W 095°35'1011.2
2017-Mar-11 05:34N 19°15' W 095°44'1 0.8
2017-Mar-11 04:34N 19°15' W 095°43'1 0.9
2017-Mar-11 03:34N 19°15' W 095°42'1 1.0
2017-Mar-11 02:33N 19°16' W 095°42'3 3.1
2017-Mar-11 01:34N 19°13' W 095°43'3 2.8
2017-Mar-11 00:34N 19°11' W 095°43'1 1.0
2017-Mar-10 23:33N 19°11' W 095°43'1 0.9
2017-Mar-10 22:34N 19°12' W 095°42'1 0.8
2017-Mar-10 21:34N 19°12' W 095°41'1 0.7
2017-Mar-10 20:33N 19°13' W 095°41'1 0.7
2017-Mar-10 19:34N 19°13' W 095°41'1 0.7
2017-Mar-10 18:33N 19°14' W 095°40'1 0.7
2017-Mar-10 17:33N 19°15' W 095°41'1 0.6
2017-Mar-10 16:34N 19°15' W 095°41'1 0.8
2017-Mar-10 15:34N 19°16' W 095°41'1 0.6
2017-Mar-10 14:33N 19°16' W 095°41'0 0.4
2017-Mar-10 13:33N 19°17' W 095°41'0 0.4
2017-Mar-10 12:33N 19°16' W 095°41'2 2.4
2017-Mar-10 11:34N 19°16' W 095°39'32 9.2
2017-Mar-10 08:04N 19°35' W 095°11'612.5
2017-Mar-10 07:34N 19°39' W 095°06'1812.4
2017-Mar-10 06:05N 19°50' W 094°50'1212.4
2017-Mar-10 05:05N 19°57' W 094°39'  

Dump ship's entire track history